createdAt,value
2023-11-13T00:01:56.489Z,99948.56
2023-11-13T00:04:23.464Z,99953.03
2023-11-13T00:06:50.418Z,99956.31
2023-11-13T00:09:17.380Z,99969.09
2023-11-13T00:11:45.336Z,99946.69
2023-11-13T00:14:12.420Z,99956.84
2023-11-13T00:16:39.568Z,99958.47
2023-11-13T00:19:06.743Z,99955.84
2023-11-13T00:21:35.362Z,99947.56
2023-11-13T00:24:02.553Z,99949.03
2023-11-13T00:26:29.455Z,99938.81
2023-11-13T00:28:56.800Z,99928.09
2023-11-13T00:31:24.142Z,99930.75
2023-11-13T00:33:51.424Z,99927.47
2023-11-13T00:36:18.356Z,99934.38
2023-11-13T00:38:45.352Z,99929.09
2023-11-13T00:41:13.195Z,99929.47
2023-11-13T00:43:40.856Z,99932.13
2023-11-13T00:46:08.519Z,99936.56
2023-11-13T00:48:39.160Z,99929.66
2023-11-13T00:51:06.485Z,99925.38
2023-11-13T00:53:38.368Z,99919.94
2023-11-13T00:56:08.828Z,99916.91
2023-11-13T00:58:37.298Z,99913.28
2023-11-13T01:01:08.384Z,99903.53
2023-11-13T01:03:35.865Z,99895.81
2023-11-13T01:06:04.144Z,99888.72
2023-11-13T01:08:31.132Z,99876.19
2023-11-13T01:10:58.534Z,99873.38
2023-11-13T01:13:25.447Z,99868.09
2023-11-13T01:15:55.202Z,99853.88
2023-11-13T01:18:22.936Z,99855.72
2023-11-13T01:20:50.005Z,99852.72
2023-11-13T01:23:16.958Z,99850.06
2023-11-13T01:25:46.267Z,99860.63
2023-11-13T01:28:14.574Z,99874.63
2023-11-13T01:30:41.517Z,99862.44
2023-11-13T01:33:08.531Z,99845.78
2023-11-13T01:35:35.491Z,99823.69
2023-11-13T01:38:02.493Z,99821.25
2023-11-13T01:40:29.629Z,99820.41
2023-11-13T01:42:56.773Z,99823.69
2023-11-13T01:45:23.772Z,99817.03
2023-11-13T01:47:51.253Z,99809.75
2023-11-13T01:50:18.333Z,99807.13
2023-11-13T01:52:45.893Z,99796.56
2023-11-13T01:55:13.825Z,99803.50
2023-11-13T01:57:42.302Z,99801.66
2023-11-13T02:00:09.743Z,99797.41
2023-11-13T02:02:36.905Z,99804.28
2023-11-13T02:05:04.010Z,99795.38
2023-11-13T02:07:31.025Z,99794.56
2023-11-13T02:09:57.998Z,99786.47
2023-11-13T02:12:27.636Z,99774.28
2023-11-13T02:14:54.621Z,99771.63
2023-11-13T02:17:21.773Z,99776.31
2023-11-13T02:19:48.683Z,99767.56
2023-11-13T02:22:16.024Z,99748.28
2023-11-13T02:24:43.027Z,99745.00
2023-11-13T02:27:10.099Z,99747.47
2023-11-13T02:29:37.722Z,99739.75
2023-11-13T02:32:05.125Z,99729.19
2023-11-13T02:34:31.984Z,99727.38
2023-11-13T02:36:59.004Z,99724.38
2023-11-13T02:39:25.987Z,99721.28
2023-11-13T02:41:53.376Z,99716.81
2023-11-13T02:44:20.744Z,99696.72
2023-11-13T02:46:47.865Z,99693.47
2023-11-13T02:49:14.897Z,99682.94
2023-11-13T02:51:43.328Z,99684.75
2023-11-13T02:54:10.438Z,99687.75
2023-11-13T02:56:37.405Z,99682.69
2023-11-13T02:59:05.043Z,99680.88
2023-11-13T03:01:32.475Z,99683.69
2023-11-13T03:03:59.500Z,99674.97
2023-11-13T03:06:26.932Z,99669.50
2023-11-13T03:08:54.104Z,99667.69
2023-11-13T03:11:21.040Z,99656.31
2023-11-13T03:13:48.171Z,99634.59
2023-11-13T03:16:15.240Z,99643.97
2023-11-13T03:18:42.239Z,99637.22
2023-11-13T03:21:09.211Z,99641.91
2023-11-13T03:23:36.093Z,99649.34
2023-11-13T03:26:05.031Z,99642.09
2023-11-13T03:28:32.432Z,99631.13
2023-11-13T03:30:59.610Z,99609.38
2023-11-13T03:33:26.790Z,99615.66
2023-11-13T03:35:53.725Z,99607.75
2023-11-13T03:38:20.689Z,99583.78
2023-11-13T03:40:47.628Z,99599.44
2023-11-13T03:43:14.559Z,99594.97
2023-11-13T03:45:41.429Z,99577.13
2023-11-13T03:48:08.512Z,99574.06
2023-11-13T03:50:35.564Z,99563.91
2023-11-13T03:53:02.482Z,99557.63
2023-11-13T03:55:29.441Z,99550.94
2023-11-13T03:57:56.632Z,99549.09
2023-11-13T04:00:23.710Z,99541.38
2023-11-13T04:02:50.872Z,99526.38
2023-11-13T04:05:18.465Z,99514.41
2023-11-13T04:07:45.644Z,99501.44
2023-11-13T04:10:15.126Z,99491.69
2023-11-13T04:12:48.254Z,99477.72
2023-11-13T04:15:15.510Z,99465.53
2023-11-13T04:17:42.513Z,99460.06
2023-11-13T04:20:14.308Z,99460.91
2023-11-13T04:22:42.843Z,99446.09
2023-11-13T04:25:10.574Z,99448.09
2023-11-13T04:27:37.540Z,99434.72
2023-11-13T04:30:05.819Z,99435.53
2023-11-13T04:32:32.994Z,99425.00
2023-11-13T04:35:00.246Z,99415.06
2023-11-13T04:37:27.314Z,99391.78
2023-11-13T04:39:54.337Z,99391.97
2023-11-13T04:42:21.180Z,99390.97
2023-11-13T04:44:48.327Z,99386.50
2023-11-13T04:47:15.218Z,99374.13
2023-11-13T04:49:42.265Z,99349.19
2023-11-13T04:52:09.473Z,99351.41
2023-11-13T04:54:38.834Z,99352.44
2023-11-13T04:57:05.973Z,99341.88
2023-11-13T04:59:33.077Z,99322.25
2023-11-13T05:02:00.868Z,99328.72
2023-11-13T05:04:28.119Z,99314.75
2023-11-13T05:06:56.011Z,99313.28
2023-11-13T05:09:23.654Z,99298.28
2023-11-13T05:11:50.826Z,99296.88
2023-11-13T05:14:17.771Z,99293.47
2023-11-13T05:16:45.211Z,99295.28
2023-11-13T05:19:12.196Z,99287.38
2023-11-13T05:21:39.632Z,99284.50
2023-11-13T05:24:07.820Z,99274.19
2023-11-13T05:26:34.792Z,99261.63
2023-11-13T05:29:01.974Z,99255.53
2023-11-13T05:31:29.204Z,99257.16
2023-11-13T05:33:56.520Z,99249.84
2023-11-13T05:36:23.725Z,99234.47
2023-11-13T05:38:50.760Z,99227.75
2023-11-13T05:41:17.925Z,99231.22
2023-11-13T05:43:45.170Z,99221.69
2023-11-13T05:46:12.189Z,99226.94
2023-11-13T05:48:39.157Z,99217.81
2023-11-13T05:51:07.541Z,99221.88
2023-11-13T05:53:34.482Z,99216.19
2023-11-13T05:56:01.433Z,99197.13
2023-11-13T05:58:28.322Z,99190.63
2023-11-13T06:00:58.621Z,99172.56
2023-11-13T06:03:25.757Z,99156.94
2023-11-13T06:05:52.641Z,99153.47
2023-11-13T06:08:19.584Z,99163.63
2023-11-13T06:10:46.485Z,99155.72
2023-11-13T06:13:14.426Z,99152.66
2023-11-13T06:15:42.261Z,99152.22
2023-11-13T06:18:09.701Z,99148.00
2023-11-13T06:20:37.053Z,99147.75
2023-11-13T06:23:04.160Z,99139.84
2023-11-13T06:25:31.158Z,99131.75
2023-11-13T06:28:01.026Z,99130.72
2023-11-13T06:30:28.717Z,99118.13
2023-11-13T06:32:55.832Z,99115.28
2023-11-13T06:35:22.897Z,99103.50
2023-11-13T06:37:49.915Z,99103.28
2023-11-13T06:40:18.689Z,99099.19
2023-11-13T06:42:49.301Z,99104.47
2023-11-13T06:45:16.758Z,99084.94
2023-11-13T06:47:44.665Z,99083.06
2023-11-13T06:50:12.177Z,99063.94
2023-11-13T06:52:39.277Z,99066.56
2023-11-13T06:55:06.770Z,99068.16
2023-11-13T06:57:34.076Z,99058.97
2023-11-13T07:00:01.010Z,99062.13
2023-11-13T07:02:29.414Z,99050.63
2023-11-13T07:04:56.467Z,99057.47
2023-11-13T07:07:23.553Z,99054.91
2023-11-13T07:09:50.574Z,99056.03
2023-11-13T07:12:18.152Z,99057.59
2023-11-13T07:14:46.175Z,99067.28
2023-11-13T07:17:13.620Z,99049.50
2023-11-13T07:19:41.308Z,99049.66
2023-11-13T07:22:08.866Z,99028.44
2023-11-13T07:24:38.172Z,99037.09
2023-11-13T07:27:08.739Z,99033.00
2023-11-13T07:29:36.838Z,99032.53
2023-11-13T07:32:03.861Z,99021.50
2023-11-13T07:34:30.851Z,99024.34
2023-11-13T07:36:57.797Z,99028.53
2023-11-13T07:39:29.205Z,99029.69
2023-11-13T07:41:58.312Z,99027.53
2023-11-13T07:44:25.451Z,99021.81
2023-11-13T07:46:53.636Z,99011.38
2023-11-13T07:49:20.791Z,98994.00
2023-11-13T07:51:48.385Z,98968.13
2023-11-13T07:54:15.447Z,98973.97
2023-11-13T07:56:42.510Z,98965.59
2023-11-13T07:59:12.385Z,98950.66
2023-11-13T08:01:39.548Z,98948.34
2023-11-13T08:04:10.008Z,98948.91
2023-11-13T08:06:37.061Z,98945.34
2023-11-13T08:09:10.174Z,98976.44
2023-11-13T08:11:37.797Z,98967.81
2023-11-13T08:14:05.013Z,98966.34
2023-11-13T08:16:35.329Z,98971.19
2023-11-13T08:19:02.722Z,98961.53
2023-11-13T08:21:32.680Z,98968.78
2023-11-13T08:24:03.607Z,98956.94
2023-11-13T08:26:34.186Z,98939.97
2023-11-13T08:29:01.381Z,98955.66
2023-11-13T08:31:31.131Z,98938.50
2023-11-13T08:33:58.586Z,98939.53
2023-11-13T08:36:29.501Z,98950.00
2023-11-13T08:38:56.648Z,98948.28
2023-11-13T08:41:24.389Z,98959.13
2023-11-13T08:43:51.648Z,98966.38
2023-11-13T08:46:18.824Z,98957.16
2023-11-13T08:48:46.175Z,98974.47
2023-11-13T08:51:13.224Z,98992.53
2023-11-13T08:53:44.263Z,98991.66
2023-11-13T08:56:16.885Z,98983.81
2023-11-13T08:58:44.295Z,98984.16
2023-11-13T09:01:12.939Z,98988.53
2023-11-13T09:03:41.420Z,98991.53
2023-11-13T09:06:10.326Z,98991.06
2023-11-13T09:08:38.309Z,98982.66
2023-11-13T09:11:06.573Z,98985.56
2023-11-13T09:13:33.579Z,98962.72
2023-11-13T09:16:04.403Z,98972.63
2023-11-13T09:18:32.015Z,98980.59
2023-11-13T09:20:59.736Z,98969.50
2023-11-13T09:23:28.201Z,98960.28
2023-11-13T09:25:55.320Z,98971.44
2023-11-13T09:28:22.861Z,98982.41
2023-11-13T09:30:49.924Z,98984.13
2023-11-13T09:33:19.079Z,98991.84
2023-11-13T09:35:47.574Z,98993.34
2023-11-13T09:38:14.629Z,98995.53
2023-11-13T09:40:42.006Z,98998.75
2023-11-13T09:43:20.752Z,98991.72
2023-11-13T09:45:53.267Z,98986.16
2023-11-13T09:48:29.889Z,98988.34
2023-11-13T09:51:01.234Z,98997.34
2023-11-13T09:53:30.963Z,98999.78
2023-11-13T09:55:58.568Z,99005.09
2023-11-13T09:58:25.998Z,99013.03
2023-11-13T10:00:53.634Z,99010.94
2023-11-13T10:03:20.952Z,99020.06
2023-11-13T10:05:48.358Z,99020.50
2023-11-13T10:08:16.559Z,99014.38
2023-11-13T10:10:44.971Z,99022.91
2023-11-13T10:13:13.856Z,99015.53
2023-11-13T10:15:44.974Z,99022.69
2023-11-13T10:18:14.893Z,99027.09
2023-11-13T10:20:47.969Z,99011.63
2023-11-13T10:23:16.654Z,99024.91
2023-11-13T10:25:48.409Z,99035.28
2023-11-13T10:28:16.209Z,99046.94
2023-11-13T10:31:03.251Z,99043.13
2023-11-13T10:33:31.054Z,99052.50
2023-11-13T10:36:06.472Z,99059.53
2023-11-13T10:38:48.966Z,99061.16
2023-11-13T10:41:26.045Z,99062.78
2023-11-13T10:43:53.781Z,99063.69
2023-11-13T10:46:30.926Z,99080.44
2023-11-13T10:48:59.963Z,99088.25
2023-11-13T10:51:28.899Z,99093.56
2023-11-13T10:53:57.326Z,99079.25
2023-11-13T10:56:26.786Z,99089.66
2023-11-13T10:58:55.488Z,99099.69
2023-11-13T11:01:30.517Z,99102.69
2023-11-13T11:04:05.778Z,99092.91
2023-11-13T11:06:39.500Z,99111.25
2023-11-13T11:09:09.289Z,99106.38
2023-11-13T11:11:41.692Z,99110.66
2023-11-13T11:14:18.728Z,99127.41
2023-11-13T11:17:02.771Z,99118.63
2023-11-13T11:19:47.406Z,99132.00
2023-11-13T11:22:31.738Z,99139.03
2023-11-13T11:25:19.313Z,99149.09
2023-11-13T11:27:47.728Z,99155.31
2023-11-13T11:30:26.835Z,99157.97
2023-11-13T11:32:58.276Z,99158.19
2023-11-13T11:35:31.093Z,99170.63
2023-11-13T11:38:16.830Z,99162.69
2023-11-13T11:40:46.444Z,99161.66
2023-11-13T11:43:19.795Z,99172.84
2023-11-13T11:45:52.978Z,99171.00
2023-11-13T11:48:21.017Z,99176.88
2023-11-13T11:50:53.038Z,99177.69
2023-11-13T11:53:21.960Z,99173.19
2023-11-13T11:55:48.954Z,99181.84
2023-11-13T11:58:17.551Z,99198.00
2023-11-13T12:00:46.825Z,99196.16
2023-11-13T12:03:13.983Z,99189.00
2023-11-13T12:05:42.459Z,99191.31
2023-11-13T12:08:13.744Z,99182.31
2023-11-13T12:10:43.129Z,99191.75
2023-11-13T12:13:10.902Z,99186.69
2023-11-13T12:15:38.004Z,99194.66
2023-11-13T12:18:05.330Z,99192.44
2023-11-13T12:20:32.798Z,99177.78
2023-11-13T12:22:59.905Z,99189.22
2023-11-13T12:25:27.117Z,99190.59
2023-11-13T12:27:56.021Z,99185.06
2023-11-13T12:30:24.493Z,99180.78
2023-11-13T12:32:55.064Z,99187.50
2023-11-13T12:35:22.818Z,99183.78
2023-11-13T12:37:51.606Z,99180.09
2023-11-13T12:40:20.056Z,99187.50
2023-11-13T12:42:47.715Z,99184.38
2023-11-13T12:45:17.685Z,99191.75
2023-11-13T12:47:47.743Z,99195.00
2023-11-13T12:50:22.392Z,99199.38
2023-11-13T12:52:54.886Z,99207.69
2023-11-13T12:55:29.295Z,99198.09
2023-11-13T12:57:56.933Z,99205.72
2023-11-13T13:00:24.278Z,99225.78
2023-11-13T13:02:55.418Z,99224.16
2023-11-13T13:05:30.538Z,99240.69
2023-11-13T13:08:03.462Z,99230.28
2023-11-13T13:10:35.699Z,99230.84
2023-11-13T13:13:06.603Z,99244.59
2023-11-13T13:15:34.285Z,99250.22
2023-11-13T13:18:01.298Z,99247.66
2023-11-13T13:20:32.052Z,99252.97
2023-11-13T13:23:00.935Z,99262.31
2023-11-13T13:25:33.114Z,99266.16
2023-11-13T13:28:00.769Z,99259.56
2023-11-13T13:30:34.198Z,99266.16
2023-11-13T13:33:03.376Z,99278.47
2023-11-13T13:35:30.502Z,99268.06
2023-11-13T13:37:58.047Z,99277.66
2023-11-13T13:40:27.903Z,99292.53
2023-11-13T13:43:00.777Z,99273.38
2023-11-13T13:45:29.733Z,99284.19
2023-11-13T13:47:58.412Z,99291.00
2023-11-13T13:50:26.951Z,99293.09
2023-11-13T13:52:57.814Z,99306.78
2023-11-13T13:55:29.631Z,99300.97
2023-11-13T13:57:58.765Z,99306.56
2023-11-13T14:03:03.117Z,99307.31
2023-11-13T14:05:30.996Z,99308.75
2023-11-13T14:07:58.344Z,99314.72
2023-11-13T14:10:25.962Z,99320.91
2023-11-13T14:12:53.413Z,99317.66
2023-11-13T14:15:21.619Z,99319.06
2023-11-13T14:17:53.478Z,99309.28
2023-11-13T14:20:25.409Z,99316.78
2023-11-13T14:22:56.828Z,99310.22
2023-11-13T14:25:26.759Z,99323.06
2023-11-13T14:27:55.721Z,99332.41
2023-11-13T14:30:26.980Z,99333.97
2023-11-13T14:32:55.525Z,99341.47
2023-11-13T14:35:24.904Z,99339.19
2023-11-13T14:37:52.242Z,99337.13
2023-11-13T14:40:20.562Z,99348.56
2023-11-13T14:42:48.255Z,99349.13
2023-11-13T14:45:18.208Z,99362.63
2023-11-13T14:47:47.836Z,99370.13
2023-11-13T14:50:22.871Z,99357.31
2023-11-13T14:52:53.976Z,99363.44
2023-11-13T14:55:25.851Z,99365.28
2023-11-13T14:57:53.960Z,99359.97
2023-11-13T15:00:23.738Z,99360.78
2023-11-13T15:02:53.820Z,99369.78
2023-11-13T15:05:21.553Z,99384.25
2023-11-13T15:07:51.840Z,99378.16
2023-11-13T15:10:19.416Z,99366.16
2023-11-13T15:12:47.410Z,99366.97
2023-11-13T15:15:16.708Z,99377.78
2023-11-13T15:17:47.451Z,99380.22
2023-11-13T15:20:19.616Z,99374.50
2023-11-13T15:23:08.962Z,99398.59
2023-11-13T15:25:39.852Z,99383.72
2023-11-13T15:28:06.808Z,99383.72
2023-11-13T15:30:33.749Z,99390.25
2023-11-13T15:33:05.466Z,99408.25
2023-11-13T15:35:32.466Z,99381.94
2023-11-13T15:37:59.629Z,99415.59
2023-11-13T15:40:26.685Z,99410.53
2023-11-13T15:42:53.614Z,99420.31
2023-11-13T15:45:20.586Z,99409.13
2023-11-13T15:47:48.292Z,99400.34
2023-11-13T15:50:18.164Z,99411.59
2023-11-13T15:52:45.543Z,99421.59
2023-11-13T15:55:13.284Z,99415.94
2023-11-13T15:57:41.254Z,99417.78
2023-11-13T16:00:13.867Z,99429.63
2023-11-13T16:02:42.084Z,99432.50
2023-11-13T16:05:10.454Z,99421.94
2023-11-13T16:07:38.193Z,99416.72
2023-11-13T16:10:05.815Z,99432.00
2023-11-13T16:12:32.846Z,99421.63
2023-11-13T16:15:00.770Z,99436.13
2023-11-13T16:17:31.472Z,99443.47
2023-11-13T16:20:05.060Z,99461.19
2023-11-13T16:22:33.479Z,99450.41
2023-11-13T16:25:02.403Z,99448.75
2023-11-13T16:27:32.201Z,99453.84
2023-11-13T16:30:03.418Z,99460.19
2023-11-13T16:32:30.951Z,99466.50
2023-11-13T16:34:58.100Z,99454.50
2023-11-13T16:37:25.092Z,99468.97
2023-11-13T16:39:53.956Z,99476.88
2023-11-13T16:42:20.880Z,99469.59
2023-11-13T16:44:48.073Z,99467.94
2023-11-13T16:47:15.048Z,99470.03
2023-11-13T16:49:44.421Z,99478.75
2023-11-13T16:52:12.965Z,99483.47
2023-11-13T16:54:40.000Z,99474.72
2023-11-13T16:57:06.954Z,99477.56
2023-11-13T16:59:33.892Z,99494.47
2023-11-13T17:02:00.889Z,99499.00
2023-11-13T17:04:27.898Z,99498.38
2023-11-13T17:06:55.005Z,99498.19
2023-11-13T17:09:22.075Z,99517.28
2023-11-13T17:11:48.973Z,99523.03
2023-11-13T17:14:15.874Z,99503.25
2023-11-13T17:16:42.928Z,99517.28
2023-11-13T17:19:10.324Z,99518.94
2023-11-13T17:21:39.216Z,99525.69
2023-11-13T17:24:07.307Z,99530.53
2023-11-13T17:26:34.346Z,99529.72
2023-11-13T17:29:03.065Z,99515.84
2023-11-13T17:31:31.689Z,99534.63
2023-11-13T17:33:58.807Z,99540.13
2023-11-13T17:36:25.871Z,99540.31
2023-11-13T17:39:18.530Z,99545.03
2023-11-13T17:41:46.762Z,99546.06
2023-11-13T17:44:13.780Z,99547.44
2023-11-13T17:46:42.962Z,99551.16
2023-11-13T17:49:10.105Z,99558.84
2023-11-13T17:51:37.113Z,99556.44
2023-11-13T17:54:04.915Z,99556.66
2023-11-13T17:56:31.794Z,99567.03
2023-11-13T17:58:58.796Z,99551.97
2023-11-13T18:01:26.319Z,99558.47
2023-11-13T18:03:55.725Z,99556.84
2023-11-13T18:06:25.398Z,99555.66
2023-11-13T18:08:52.235Z,99556.91
2023-11-13T18:11:19.239Z,99553.03
2023-11-13T18:13:46.270Z,99565.06
2023-11-13T18:16:15.713Z,99557.75
2023-11-13T18:18:43.441Z,99564.69
2023-11-13T18:21:10.466Z,99578.13
2023-11-13T18:23:37.502Z,99556.38
2023-11-13T18:26:04.524Z,99563.91
2023-11-13T18:28:31.539Z,99558.66
2023-11-13T18:30:59.720Z,99577.78
2023-11-13T18:33:30.723Z,99589.19
2023-11-13T18:35:59.091Z,99592.88
2023-11-13T18:38:27.070Z,99590.00
2023-11-13T18:40:54.152Z,99593.66
2023-11-13T18:43:24.287Z,99620.13
2023-11-13T18:45:53.550Z,99609.53
2023-11-13T18:48:21.293Z,99612.19
2023-11-13T18:50:48.837Z,99628.28
2023-11-13T18:53:16.843Z,99639.91
2023-11-13T18:55:46.100Z,99637.44
2023-11-13T18:58:13.097Z,99640.09
2023-11-13T19:00:40.051Z,99641.09
2023-11-13T19:03:07.291Z,99656.41
2023-11-13T19:05:34.712Z,99653.75
2023-11-13T19:08:01.743Z,99651.09
2023-11-13T19:10:29.325Z,99658.63
2023-11-13T19:12:56.422Z,99670.03
2023-11-13T19:15:24.220Z,99663.09
2023-11-13T19:17:51.317Z,99651.50
2023-11-13T19:20:21.371Z,99649.47
2023-11-13T19:22:48.363Z,99666.38
2023-11-13T19:25:15.549Z,99648.25
2023-11-13T19:27:43.701Z,99655.56
2023-11-13T19:30:11.282Z,99654.53
2023-11-13T19:32:40.025Z,99648.25
2023-11-13T19:35:08.532Z,99650.88
2023-11-13T19:37:35.773Z,99656.19
2023-11-13T19:40:09.377Z,99653.13
2023-11-13T19:42:39.599Z,99662.91
2023-11-13T19:45:13.453Z,99668.38
2023-11-13T19:47:41.630Z,99681.63
2023-11-13T19:50:10.318Z,99676.13
2023-11-13T19:52:45.303Z,99691.63
2023-11-13T19:55:14.763Z,99695.88
2023-11-13T19:57:42.922Z,99686.31
2023-11-13T20:00:18.279Z,99685.50
2023-11-13T20:02:45.971Z,99678.38
2023-11-13T20:05:13.149Z,99682.63
2023-11-13T20:07:40.216Z,99698.72
2023-11-13T20:10:12.642Z,99682.63
2023-11-13T20:12:39.785Z,99695.47
2023-11-13T20:15:08.669Z,99695.47
2023-11-13T20:17:37.025Z,99692.00
2023-11-13T20:20:05.239Z,99709.09
2023-11-13T20:22:32.258Z,99703.22
2023-11-13T20:24:59.210Z,99695.66
2023-11-13T20:27:26.271Z,99702.78
2023-11-13T20:30:03.143Z,99699.75
2023-11-13T20:32:32.528Z,99695.47
2023-11-13T20:35:00.891Z,99702.19
2023-11-13T20:37:28.564Z,99711.16
2023-11-13T20:40:02.101Z,99718.06
2023-11-13T20:42:29.547Z,99726.81
2023-11-13T20:44:56.730Z,99727.03
2023-11-13T20:47:23.986Z,99729.88
2023-11-13T20:50:01.867Z,99733.94
2023-11-13T20:52:28.952Z,99708.50
2023-11-13T20:54:56.447Z,99716.66
2023-11-13T20:57:24.320Z,99714.00
2023-11-13T20:59:51.591Z,99722.75
2023-11-13T21:02:18.616Z,99740.25
2023-11-13T21:04:45.659Z,99743.09
2023-11-13T21:07:13.050Z,99744.13
2023-11-13T21:09:40.164Z,99749.00
2023-11-13T21:12:07.383Z,99742.69
2023-11-13T21:14:34.964Z,99756.72
2023-11-13T21:17:02.174Z,99752.88
2023-11-13T21:19:29.316Z,99749.00
2023-11-13T21:21:56.378Z,99740.03
2023-11-13T21:24:23.497Z,99743.28
2023-11-13T21:26:51.766Z,99745.75
2023-11-13T21:29:20.088Z,99735.75
2023-11-13T21:31:47.113Z,99741.88
2023-11-13T21:34:14.235Z,99737.19
2023-11-13T21:36:41.280Z,99734.56
2023-11-13T21:39:09.529Z,99736.19
2023-11-13T21:41:36.524Z,99754.28
2023-11-13T21:44:03.694Z,99758.16
2023-11-13T21:46:30.775Z,99757.16
2023-11-13T21:48:57.857Z,99754.91
2023-11-13T21:51:24.812Z,99763.84
2023-11-13T21:53:53.301Z,99758.56
2023-11-13T21:56:20.212Z,99771.59
2023-11-13T21:58:47.536Z,99765.47
2023-11-13T22:01:15.204Z,99758.97
2023-11-13T22:03:42.388Z,99762.84
2023-11-13T22:06:11.717Z,99766.06
2023-11-13T22:08:38.872Z,99754.69
2023-11-13T22:11:06.266Z,99745.72
2023-11-13T22:13:33.712Z,99743.31
2023-11-13T22:16:00.891Z,99735.75
2023-11-13T22:18:28.001Z,99743.69
2023-11-13T22:20:55.401Z,99742.06
2023-11-13T22:23:22.346Z,99750.81
2023-11-13T22:25:49.344Z,99753.44
2023-11-13T22:28:16.279Z,99756.91
2023-11-13T22:30:43.896Z,99759.78
2023-11-13T22:33:10.963Z,99761.81
2023-11-13T22:35:37.889Z,99774.22
2023-11-13T22:38:05.792Z,99771.38
2023-11-13T22:40:33.216Z,99776.44
2023-11-13T22:43:01.145Z,99770.16
2023-11-13T22:45:29.945Z,99774.63
2023-11-13T22:47:57.014Z,99779.53
2023-11-13T22:50:27.811Z,99794.78
2023-11-13T22:52:55.050Z,99791.13
2023-11-13T22:55:22.128Z,99804.16
2023-11-13T22:57:49.417Z,99785.00
2023-11-13T23:00:26.943Z,99793.75
2023-11-13T23:02:57.372Z,99799.06
2023-11-13T23:05:24.710Z,99805.53
2023-11-13T23:07:51.621Z,99804.94
2023-11-13T23:10:18.710Z,99813.47
2023-11-13T23:12:45.832Z,99823.06
2023-11-13T23:15:13.066Z,99820.41
2023-11-13T23:17:41.826Z,99827.34
2023-11-13T23:20:13.153Z,99831.22
2023-11-13T23:22:40.509Z,99828.56
2023-11-13T23:25:09.775Z,99828.34
2023-11-13T23:27:37.066Z,99833.25
2023-11-13T23:30:11.983Z,99840.97
2023-11-13T23:32:39.594Z,99835.28
2023-11-13T23:35:09.550Z,99827.72
2023-11-13T23:37:37.791Z,99830.38
2023-11-13T23:40:07.558Z,99826.91
2023-11-13T23:42:34.485Z,99822.22
2023-11-13T23:45:01.438Z,99826.69
2023-11-13T23:47:34.880Z,99839.16
2023-11-13T23:50:03.299Z,99841.16
2023-11-13T23:52:31.203Z,99843.41
2023-11-13T23:54:58.183Z,99857.03
2023-11-13T23:57:25.722Z,99866.56
2023-11-13T23:59:52.657Z,99863.94
